createdAt,value
2018-03-29T00:00:54.625Z,21.49
2018-03-29T00:03:21.172Z,21.46
2018-03-29T00:05:47.536Z,21.42
2018-03-29T00:08:13.918Z,21.38
2018-03-29T00:10:40.276Z,21.29
2018-03-29T00:13:06.675Z,21.38
2018-03-29T00:15:33.041Z,21.46
2018-03-29T00:17:59.503Z,21.45
2018-03-29T00:20:25.940Z,21.37
2018-03-29T00:22:53.906Z,21.47
2018-03-29T00:25:20.237Z,21.36
2018-03-29T00:27:46.656Z,21.38
2018-03-29T00:30:13.047Z,21.33
2018-03-29T00:32:39.422Z,21.36
2018-03-29T00:35:05.819Z,21.30
2018-03-29T00:37:32.154Z,21.36
2018-03-29T00:39:58.553Z,21.35
2018-03-29T00:42:24.999Z,21.35
2018-03-29T00:44:51.358Z,21.37
2018-03-29T00:47:17.680Z,21.30
2018-03-29T00:49:44.078Z,21.32
2018-03-29T00:52:11.273Z,21.20
2018-03-29T00:54:37.591Z,21.35
2018-03-29T00:57:04.009Z,21.29
2018-03-29T00:59:30.407Z,21.28
2018-03-29T01:01:56.884Z,21.36
2018-03-29T01:04:23.312Z,21.50
2018-03-29T01:06:49.646Z,21.26
2018-03-29T01:09:16.135Z,21.13
2018-03-29T01:11:42.531Z,21.16
2018-03-29T01:14:09.041Z,21.04
2018-03-29T01:16:35.441Z,21.02
2018-03-29T01:19:02.024Z,20.94
2018-03-29T01:21:28.593Z,21.04
2018-03-29T01:23:55.184Z,20.98
2018-03-29T01:26:22.578Z,20.91
2018-03-29T01:28:49.517Z,20.97
2018-03-29T01:31:16.082Z,21.00
2018-03-29T01:33:42.482Z,21.00
2018-03-29T01:36:08.834Z,21.05
2018-03-29T01:38:35.168Z,21.04
2018-03-29T01:41:01.538Z,20.97
2018-03-29T01:43:28.044Z,21.01
2018-03-29T01:45:54.506Z,21.04
2018-03-29T01:48:20.894Z,21.08
2018-03-29T01:50:47.246Z,21.07
2018-03-29T01:53:13.634Z,21.15
2018-03-29T01:55:40.048Z,21.14
2018-03-29T01:58:06.482Z,21.17
2018-03-29T02:00:32.897Z,21.23
2018-03-29T02:02:59.234Z,21.00
2018-03-29T02:05:25.841Z,21.13
2018-03-29T02:07:52.253Z,21.17
2018-03-29T02:10:18.982Z,21.04
2018-03-29T02:12:45.384Z,21.15
2018-03-29T02:15:11.704Z,21.09
2018-03-29T02:17:38.166Z,21.14
2018-03-29T02:20:04.612Z,21.19
2018-03-29T02:22:30.983Z,21.25
2018-03-29T02:24:57.463Z,21.23
2018-03-29T02:27:23.812Z,21.17
2018-03-29T02:29:50.265Z,21.21
2018-03-29T02:32:16.918Z,21.18
2018-03-29T02:34:43.290Z,21.20
2018-03-29T02:37:09.666Z,21.17
2018-03-29T02:39:36.024Z,21.22
2018-03-29T02:42:02.418Z,21.23
2018-03-29T02:44:28.762Z,21.21
2018-03-29T02:46:55.150Z,21.22
2018-03-29T02:49:21.492Z,21.23
2018-03-29T02:51:47.880Z,21.23
2018-03-29T02:54:14.243Z,21.29
2018-03-29T02:56:40.716Z,21.22
2018-03-29T02:59:07.049Z,21.18
2018-03-29T03:01:33.406Z,21.22
2018-03-29T03:03:59.779Z,21.25
2018-03-29T03:06:26.178Z,21.19
2018-03-29T03:08:52.641Z,21.18
2018-03-29T03:11:18.936Z,21.27
2018-03-29T03:13:45.311Z,21.35
2018-03-29T03:16:11.704Z,21.38
2018-03-29T03:18:38.030Z,21.43
2018-03-29T03:21:04.527Z,21.50
2018-03-29T03:23:30.978Z,21.45
2018-03-29T03:25:57.470Z,21.53
2018-03-29T03:28:23.875Z,21.60
2018-03-29T03:30:50.449Z,21.62
2018-03-29T03:33:16.940Z,21.60
2018-03-29T03:35:43.688Z,21.73
2018-03-29T03:38:10.221Z,21.73
2018-03-29T03:40:36.615Z,21.75
2018-03-29T03:43:02.969Z,21.79
2018-03-29T03:45:29.408Z,21.80
2018-03-29T03:47:56.018Z,21.85
2018-03-29T03:50:22.391Z,21.86
2018-03-29T03:52:48.769Z,21.88
2018-03-29T03:55:15.254Z,21.96
2018-03-29T03:57:41.690Z,21.91
2018-03-29T04:00:08.030Z,21.93
2018-03-29T04:02:34.352Z,21.91
2018-03-29T04:05:00.758Z,22.00
2018-03-29T04:07:27.166Z,21.96
2018-03-29T04:09:53.503Z,21.99
2018-03-29T04:12:19.948Z,22.04
2018-03-29T04:14:46.392Z,22.01
2018-03-29T04:17:12.781Z,21.94
2018-03-29T04:19:39.115Z,22.06
2018-03-29T04:22:05.474Z,22.08
2018-03-29T04:24:31.805Z,22.13
2018-03-29T04:26:58.364Z,22.12
2018-03-29T04:29:24.689Z,22.12
2018-03-29T04:31:51.115Z,22.20
2018-03-29T04:34:17.433Z,22.28
2018-03-29T04:36:43.792Z,22.27
2018-03-29T04:39:10.153Z,22.24
2018-03-29T04:41:36.502Z,22.29
2018-03-29T04:44:02.847Z,22.42
2018-03-29T04:46:29.193Z,22.41
2018-03-29T04:48:55.550Z,22.51
2018-03-29T04:51:21.874Z,22.57
2018-03-29T04:53:48.242Z,22.62
2018-03-29T04:56:14.555Z,22.71
2018-03-29T04:58:41.038Z,22.77
2018-03-29T05:01:07.422Z,22.87
2018-03-29T05:03:33.763Z,22.94
2018-03-29T05:06:00.150Z,22.97
2018-03-29T05:08:26.527Z,22.98
2018-03-29T05:10:52.911Z,23.08
2018-03-29T05:13:19.310Z,23.15
2018-03-29T05:15:45.699Z,23.23
2018-03-29T05:18:12.013Z,23.38
2018-03-29T05:20:38.503Z,23.33
2018-03-29T05:23:04.882Z,23.49
2018-03-29T05:25:31.213Z,23.53
2018-03-29T05:27:57.768Z,23.49
2018-03-29T05:30:24.485Z,23.62
2018-03-29T05:32:50.878Z,23.73
2018-03-29T05:35:17.295Z,23.79
2018-03-29T05:37:44.027Z,23.78
2018-03-29T05:40:10.494Z,23.82
2018-03-29T05:42:36.886Z,23.89
2018-03-29T05:45:03.304Z,23.96
2018-03-29T05:47:30.157Z,23.98
2018-03-29T05:49:56.535Z,24.06
2018-03-29T05:52:23.286Z,24.23
2018-03-29T05:54:49.849Z,24.27
2018-03-29T05:57:17.308Z,24.24
2018-03-29T05:59:44.003Z,24.19
2018-03-29T06:02:10.596Z,24.39
2018-03-29T06:04:37.085Z,24.37
2018-03-29T06:07:03.773Z,24.48
2018-03-29T06:09:30.306Z,24.54
2018-03-29T06:11:56.655Z,24.62
2018-03-29T06:14:23.479Z,24.47
2018-03-29T06:16:50.003Z,24.64
2018-03-29T06:19:16.668Z,24.70
2018-03-29T06:21:43.085Z,24.67
2018-03-29T06:24:09.676Z,24.73
2018-03-29T06:26:36.183Z,24.82
2018-03-29T06:29:02.701Z,24.83
2018-03-29T06:31:29.127Z,24.79
2018-03-29T06:33:56.214Z,24.88
2018-03-29T06:36:23.024Z,24.89
2018-03-29T06:38:49.924Z,24.90
2018-03-29T06:41:16.503Z,25.04
2018-03-29T06:43:43.071Z,24.99
2018-03-29T06:46:09.561Z,25.12
2018-03-29T06:48:35.948Z,25.27
2018-03-29T06:51:02.347Z,25.20
2018-03-29T06:53:28.971Z,25.21
2018-03-29T06:55:55.871Z,25.31
2018-03-29T06:58:23.084Z,25.36
2018-03-29T07:00:49.747Z,25.35
2018-03-29T07:03:16.445Z,25.41
2018-03-29T07:05:43.979Z,25.43
2018-03-29T07:08:10.707Z,25.37
2018-03-29T07:10:37.324Z,25.43
2018-03-29T07:13:03.947Z,25.53
2018-03-29T07:15:30.539Z,25.37
2018-03-29T07:17:57.206Z,25.64
2018-03-29T07:20:24.546Z,25.60
2018-03-29T07:22:51.601Z,25.51
2018-03-29T07:25:18.666Z,25.64
2018-03-29T07:27:45.325Z,25.52
2018-03-29T07:30:12.219Z,25.61
2018-03-29T07:32:39.614Z,25.62
2018-03-29T07:35:06.631Z,25.67
2018-03-29T07:37:33.447Z,25.59
2018-03-29T07:40:00.270Z,25.70
2018-03-29T07:42:27.124Z,25.76
2018-03-29T07:44:53.682Z,25.69
2018-03-29T07:47:20.172Z,25.79
2018-03-29T07:49:47.553Z,25.72
2018-03-29T07:52:14.722Z,25.85
2018-03-29T07:54:41.414Z,25.87
2018-03-29T07:57:08.142Z,25.85
2018-03-29T07:59:34.723Z,25.75
2018-03-29T08:02:02.337Z,25.84
2018-03-29T08:04:29.325Z,25.97
2018-03-29T08:06:56.801Z,26.01
2018-03-29T08:09:23.588Z,25.98
2018-03-29T08:11:50.159Z,26.13
2018-03-29T08:14:16.921Z,26.05
2018-03-29T08:16:43.286Z,26.00
2018-03-29T08:19:10.004Z,26.08
2018-03-29T08:21:36.422Z,26.02
2018-03-29T08:24:02.830Z,25.93
2018-03-29T08:26:29.789Z,25.91
2018-03-29T08:28:56.413Z,25.83
2018-03-29T08:31:23.418Z,25.97
2018-03-29T08:33:50.528Z,25.77
2018-03-29T08:36:17.150Z,25.66
2018-03-29T08:38:43.850Z,25.77
2018-03-29T08:41:11.860Z,25.89
2018-03-29T08:43:38.610Z,25.82
2018-03-29T08:46:05.125Z,25.83
2018-03-29T08:48:32.045Z,25.91
2018-03-29T08:51:07.086Z,25.85
2018-03-29T08:53:33.807Z,25.88
2018-03-29T08:56:00.349Z,25.95
2018-03-29T08:58:28.000Z,25.82
2018-03-29T09:00:54.673Z,25.88
2018-03-29T09:03:21.309Z,25.80
2018-03-29T09:05:48.024Z,25.84
2018-03-29T09:08:15.098Z,25.84
2018-03-29T09:10:42.033Z,25.81
2018-03-29T09:13:09.021Z,25.80
2018-03-29T09:15:35.929Z,25.92
2018-03-29T09:18:02.322Z,25.90
2018-03-29T09:20:29.211Z,25.80
2018-03-29T09:22:56.520Z,25.83
2018-03-29T09:25:23.098Z,25.70
2018-03-29T09:27:50.066Z,25.72
2018-03-29T09:30:16.896Z,25.73
2018-03-29T09:32:43.604Z,25.64
2018-03-29T09:35:10.288Z,25.55
2018-03-29T09:37:37.658Z,25.70
2018-03-29T09:40:04.194Z,25.72
2018-03-29T09:42:30.713Z,25.63
2018-03-29T09:44:57.116Z,25.60
2018-03-29T09:47:23.871Z,25.62
2018-03-29T09:49:51.027Z,25.65
2018-03-29T09:52:17.940Z,25.59
2018-03-29T09:54:44.978Z,25.72
2018-03-29T09:57:11.842Z,25.76
2018-03-29T09:59:38.856Z,25.75
2018-03-29T10:02:05.551Z,25.62
2018-03-29T10:04:32.079Z,25.78
2018-03-29T10:06:58.705Z,25.69
2018-03-29T10:09:25.975Z,25.73
2018-03-29T10:11:52.944Z,25.72
2018-03-29T10:14:19.419Z,25.80
2018-03-29T10:16:46.147Z,25.79
2018-03-29T10:19:13.637Z,25.77
2018-03-29T10:21:40.285Z,25.79
2018-03-29T10:24:08.776Z,25.82
2018-03-29T10:26:35.607Z,25.87
2018-03-29T10:29:02.210Z,25.88
2018-03-29T10:31:28.816Z,25.85
2018-03-29T10:33:55.330Z,25.82
2018-03-29T10:36:21.907Z,25.80
2018-03-29T10:38:48.351Z,25.83
2018-03-29T10:41:18.224Z,25.63
2018-03-29T10:43:44.696Z,25.51
2018-03-29T10:46:11.315Z,25.33
2018-03-29T10:48:38.012Z,25.45
2018-03-29T10:51:05.299Z,25.32
2018-03-29T10:53:35.913Z,25.43
2018-03-29T10:56:07.023Z,25.16
2018-03-29T10:58:37.028Z,25.12
2018-03-29T11:01:06.898Z,25.39
2018-03-29T11:03:35.743Z,25.64
2018-03-29T11:06:02.954Z,25.74
2018-03-29T11:08:30.437Z,25.68
2018-03-29T11:10:58.198Z,25.76
2018-03-29T11:13:24.839Z,25.67
2018-03-29T11:15:51.611Z,25.77
2018-03-29T11:18:18.408Z,25.82
2018-03-29T11:20:44.768Z,25.79
2018-03-29T11:23:11.956Z,25.75
2018-03-29T11:25:38.554Z,25.84
2018-03-29T11:28:04.964Z,25.86
2018-03-29T11:30:31.538Z,25.74
2018-03-29T11:32:59.177Z,25.86
2018-03-29T11:35:28.401Z,25.82
2018-03-29T11:37:55.410Z,25.83
2018-03-29T11:40:21.908Z,25.72
2018-03-29T11:42:50.887Z,25.93
2018-03-29T11:45:25.672Z,25.90
2018-03-29T11:50:26.394Z,25.89
2018-03-29T11:52:56.730Z,25.92
2018-03-29T11:57:57.176Z,25.89
2018-03-29T12:10:31.475Z,25.90
2018-03-29T12:12:59.871Z,25.89
2018-03-29T12:15:27.328Z,25.94
2018-03-29T12:17:56.746Z,25.91
2018-03-29T12:22:55.887Z,25.94
2018-03-29T12:25:25.937Z,25.91
2018-03-29T12:41:04.693Z,25.80
2018-03-29T12:46:04.224Z,25.75
2018-03-29T12:48:31.467Z,25.79
2018-03-29T12:50:58.126Z,25.77
2018-03-29T12:53:25.088Z,25.72
2018-03-29T12:55:51.617Z,25.71
2018-03-29T12:58:18.558Z,25.66
2018-03-29T13:03:25.029Z,25.65
2018-03-29T13:05:51.482Z,25.56
2018-03-29T13:08:18.028Z,25.74
2018-03-29T13:10:45.441Z,25.73
2018-03-29T13:13:11.847Z,25.69
2018-03-29T13:15:38.288Z,25.73
2018-03-29T13:18:04.814Z,25.71
2018-03-29T13:20:31.215Z,25.69
2018-03-29T13:22:57.677Z,25.65
2018-03-29T13:25:24.074Z,25.64
2018-03-29T13:27:50.522Z,25.67
2018-03-29T13:30:17.932Z,25.62
2018-03-29T13:32:44.312Z,25.68
2018-03-29T13:35:10.720Z,25.62
2018-03-29T13:37:37.305Z,25.51
2018-03-29T13:40:03.781Z,25.58
2018-03-29T13:42:30.125Z,25.59
2018-03-29T13:44:56.542Z,25.63
2018-03-29T13:47:23.062Z,25.60
2018-03-29T13:49:49.509Z,25.53
2018-03-29T13:52:15.951Z,25.62
2018-03-29T13:54:42.393Z,25.54
2018-03-29T13:57:08.773Z,25.62
2018-03-29T13:59:35.159Z,25.58
2018-03-29T14:02:01.602Z,25.53
2018-03-29T14:04:27.945Z,25.59
2018-03-29T14:06:55.256Z,25.53
2018-03-29T14:09:21.792Z,25.58
2018-03-29T14:11:48.213Z,25.56
2018-03-29T14:14:14.717Z,25.49
2018-03-29T14:16:41.143Z,25.51
2018-03-29T14:19:07.556Z,25.53
2018-03-29T14:21:33.979Z,25.51
2018-03-29T14:24:00.341Z,25.50
2018-03-29T14:26:26.684Z,25.51
2018-03-29T14:28:53.193Z,25.56
2018-03-29T14:31:19.595Z,25.49
2018-03-29T14:33:46.003Z,25.57
2018-03-29T14:36:12.365Z,25.48
2018-03-29T14:38:38.746Z,25.40
2018-03-29T14:41:06.065Z,25.53
2018-03-29T14:43:32.548Z,25.50
2018-03-29T14:45:58.909Z,25.46
2018-03-29T14:48:25.416Z,25.59
2018-03-29T14:50:51.767Z,25.52
2018-03-29T14:53:18.285Z,25.53
2018-03-29T14:55:44.711Z,25.40
2018-03-29T14:58:11.921Z,25.46
2018-03-29T15:00:40.394Z,25.52
2018-03-29T15:03:06.730Z,25.45
2018-03-29T15:05:33.202Z,25.50
2018-03-29T15:07:59.620Z,25.48
2018-03-29T15:10:25.933Z,25.46
2018-03-29T15:12:52.664Z,25.51
2018-03-29T15:15:19.028Z,25.46
2018-03-29T15:17:45.435Z,25.46
2018-03-29T15:20:11.782Z,25.44
2018-03-29T15:22:38.148Z,25.48
2018-03-29T15:25:06.420Z,25.39
2018-03-29T15:27:32.756Z,25.48
2018-03-29T15:29:59.126Z,25.40
2018-03-29T15:32:25.488Z,25.42
2018-03-29T15:34:51.822Z,25.38
2018-03-29T15:37:18.510Z,25.39
2018-03-29T15:42:17.358Z,25.32
2018-03-29T15:44:43.722Z,25.37
2018-03-29T15:47:10.070Z,25.37
2018-03-29T15:49:36.413Z,25.30
2018-03-29T15:52:02.738Z,25.33
2018-03-29T15:54:29.082Z,25.30
2018-03-29T15:56:55.449Z,25.28
2018-03-29T15:59:21.950Z,25.26
2018-03-29T16:01:48.371Z,25.29
2018-03-29T16:04:14.697Z,25.18
2018-03-29T16:06:41.131Z,25.21
2018-03-29T16:09:07.530Z,25.17
2018-03-29T16:11:33.950Z,25.24
2018-03-29T16:14:01.130Z,25.17
2018-03-29T16:16:27.459Z,25.16
2018-03-29T16:18:53.850Z,25.13
2018-03-29T16:21:20.191Z,25.16
2018-03-29T16:23:46.573Z,25.13
2018-03-29T16:26:12.905Z,25.07
2018-03-29T16:28:39.233Z,25.07
2018-03-29T16:31:05.549Z,25.08
2018-03-29T16:33:31.935Z,25.02
2018-03-29T16:35:58.263Z,25.09
2018-03-29T16:38:24.630Z,25.07
2018-03-29T16:40:50.978Z,25.04
2018-03-29T16:43:17.317Z,25.03
2018-03-29T16:45:43.645Z,25.05
2018-03-29T16:48:10.005Z,24.95
2018-03-29T16:50:36.319Z,24.98
2018-03-29T16:53:02.651Z,24.97
2018-03-29T16:55:28.970Z,24.96
2018-03-29T16:57:55.281Z,24.98
2018-03-29T17:00:21.680Z,24.97
2018-03-29T17:02:48.010Z,24.96
2018-03-29T17:05:14.328Z,24.88
2018-03-29T17:07:40.652Z,24.91
2018-03-29T17:10:07.047Z,24.80
2018-03-29T17:12:33.374Z,24.91
2018-03-29T17:14:59.722Z,24.92
2018-03-29T17:17:26.042Z,24.91
2018-03-29T17:19:52.400Z,24.88
2018-03-29T17:22:18.736Z,24.86
2018-03-29T17:24:45.057Z,24.89
2018-03-29T17:27:11.498Z,24.87
2018-03-29T17:29:37.953Z,24.85
2018-03-29T17:32:04.280Z,24.82
2018-03-29T17:34:30.681Z,24.79
2018-03-29T17:36:57.081Z,24.75
2018-03-29T17:39:23.465Z,24.73
2018-03-29T17:41:49.782Z,24.67
2018-03-29T17:44:16.122Z,24.63
2018-03-29T17:46:42.460Z,24.63
2018-03-29T17:49:09.633Z,24.50
2018-03-29T17:51:36.146Z,24.49
2018-03-29T17:54:02.552Z,24.53
2018-03-29T17:56:29.061Z,24.50
2018-03-29T17:58:55.500Z,24.43
2018-03-29T18:01:21.905Z,24.43
2018-03-29T18:03:48.280Z,24.30
2018-03-29T18:06:14.633Z,24.35
2018-03-29T18:08:41.204Z,24.38
2018-03-29T18:11:07.569Z,24.33
2018-03-29T18:13:33.918Z,24.32
2018-03-29T18:16:00.295Z,24.29
2018-03-29T18:18:26.667Z,24.28
2018-03-29T18:20:53.124Z,24.23
2018-03-29T18:23:19.428Z,24.21
2018-03-29T18:25:45.899Z,24.16
2018-03-29T18:28:12.350Z,24.13
2018-03-29T18:30:38.767Z,24.10
2018-03-29T18:33:05.104Z,24.10
2018-03-29T18:35:31.461Z,24.08
2018-03-29T18:37:57.865Z,24.08
2018-03-29T18:40:24.249Z,24.06
2018-03-29T18:42:50.627Z,24.04
2018-03-29T18:45:16.970Z,24.00
2018-03-29T18:47:43.387Z,23.97
2018-03-29T18:50:09.799Z,23.92
2018-03-29T18:52:36.233Z,23.94
2018-03-29T18:55:02.636Z,23.90
2018-03-29T18:57:29.053Z,23.92
2018-03-29T18:59:55.453Z,23.88
2018-03-29T19:02:21.837Z,23.85
2018-03-29T19:04:48.182Z,23.82
2018-03-29T19:07:14.550Z,23.80
2018-03-29T19:09:40.951Z,23.79
2018-03-29T19:12:07.395Z,23.74
2018-03-29T19:14:33.917Z,23.76
2018-03-29T19:17:00.447Z,23.74
2018-03-29T19:19:26.821Z,23.74
2018-03-29T19:21:53.204Z,23.66
2018-03-29T19:24:19.588Z,23.68
2018-03-29T19:26:45.969Z,23.63
2018-03-29T19:29:12.337Z,23.66
2018-03-29T19:31:38.783Z,23.63
2018-03-29T19:34:05.210Z,23.62
2018-03-29T19:36:31.637Z,23.59
2018-03-29T19:38:58.309Z,23.59
2018-03-29T19:41:24.740Z,23.57
2018-03-29T19:43:51.126Z,23.55
2018-03-29T19:46:17.547Z,23.51
2018-03-29T19:48:43.950Z,23.50
2018-03-29T19:51:10.356Z,23.47
2018-03-29T19:53:36.720Z,23.44
2018-03-29T19:56:03.043Z,23.41
2018-03-29T19:58:29.467Z,23.43
2018-03-29T20:00:55.782Z,23.45
2018-03-29T20:03:22.139Z,23.40
2018-03-29T20:05:48.486Z,23.40
2018-03-29T20:08:14.957Z,23.36
2018-03-29T20:10:41.397Z,23.36
2018-03-29T20:13:07.797Z,23.35
2018-03-29T20:15:34.221Z,23.33
2018-03-29T20:18:00.589Z,23.35
2018-03-29T20:20:26.950Z,23.35
2018-03-29T20:22:53.462Z,23.32
2018-03-29T20:25:19.801Z,23.31
2018-03-29T20:27:46.238Z,23.29
2018-03-29T20:30:12.758Z,23.31
2018-03-29T20:32:39.152Z,23.29
2018-03-29T20:35:05.558Z,23.31
2018-03-29T20:37:31.957Z,23.28
2018-03-29T20:39:58.286Z,23.31
2018-03-29T20:42:24.724Z,23.25
2018-03-29T20:44:51.330Z,23.27
2018-03-29T20:47:17.685Z,23.26
2018-03-29T20:49:44.101Z,23.25
2018-03-29T20:52:10.489Z,23.23
2018-03-29T20:54:36.851Z,23.22
2018-03-29T20:57:03.210Z,23.15
2018-03-29T20:59:29.606Z,23.12
2018-03-29T21:01:56.324Z,23.11
2018-03-29T21:04:22.672Z,23.13
2018-03-29T21:06:49.170Z,23.11
2018-03-29T21:09:16.402Z,23.08
2018-03-29T21:11:42.778Z,23.01
2018-03-29T21:14:09.392Z,23.03
2018-03-29T21:16:35.756Z,23.01
2018-03-29T21:19:02.196Z,23.02
2018-03-29T21:21:28.624Z,23.01
2018-03-29T21:23:55.094Z,22.99
2018-03-29T21:26:21.666Z,22.90
2018-03-29T21:28:50.521Z,22.93
2018-03-29T21:31:16.910Z,22.94
2018-03-29T21:33:43.455Z,22.93
2018-03-29T21:36:09.773Z,22.87
2018-03-29T21:38:36.102Z,22.89
2018-03-29T21:41:02.434Z,22.90
2018-03-29T21:43:28.956Z,22.87
2018-03-29T21:45:55.371Z,22.88
2018-03-29T21:48:21.781Z,22.87
2018-03-29T21:50:48.133Z,22.89
2018-03-29T21:53:14.622Z,22.70
2018-03-29T21:55:40.972Z,22.77
2018-03-29T21:58:07.746Z,22.83
2018-03-29T22:00:34.114Z,22.83
2018-03-29T22:03:00.491Z,22.77
2018-03-29T22:05:26.973Z,22.75
2018-03-29T22:07:53.588Z,22.77
2018-03-29T22:10:20.054Z,22.73
2018-03-29T22:12:46.455Z,22.70
2018-03-29T22:15:13.412Z,22.69
2018-03-29T22:17:39.764Z,22.70
2018-03-29T22:20:06.197Z,22.67
2018-03-29T22:22:32.528Z,22.69
2018-03-29T22:24:58.982Z,22.64
2018-03-29T22:27:25.401Z,22.65
2018-03-29T22:29:51.774Z,22.65
2018-03-29T22:32:18.123Z,22.63
2018-03-29T22:34:44.498Z,22.62
2018-03-29T22:37:10.830Z,22.62
2018-03-29T22:39:37.211Z,22.56
2018-03-29T22:42:03.577Z,22.60
2018-03-29T22:44:29.978Z,22.59
2018-03-29T22:46:56.430Z,22.56
2018-03-29T22:49:22.793Z,22.60
2018-03-29T22:51:49.185Z,22.53
2018-03-29T22:54:15.573Z,22.55
2018-03-29T22:56:41.898Z,22.51
2018-03-29T22:59:08.258Z,22.48
2018-03-29T23:01:34.656Z,22.49
2018-03-29T23:04:01.052Z,22.50
2018-03-29T23:06:27.485Z,22.45
2018-03-29T23:08:54.052Z,22.48
2018-03-29T23:11:20.375Z,22.48
2018-03-29T23:13:46.727Z,22.49
2018-03-29T23:16:13.218Z,22.39
2018-03-29T23:18:39.928Z,22.40
2018-03-29T23:21:06.359Z,22.43
2018-03-29T23:23:32.739Z,22.42
2018-03-29T23:25:59.234Z,22.35
2018-03-29T23:28:25.643Z,22.34
2018-03-29T23:30:52.118Z,22.40
2018-03-29T23:33:18.456Z,22.42
2018-03-29T23:35:44.972Z,22.41
2018-03-29T23:38:11.539Z,22.32
2018-03-29T23:40:37.922Z,22.31
2018-03-29T23:48:07.323Z,22.32
2018-03-29T23:50:41.379Z,22.30
2018-03-29T23:53:07.746Z,22.30
2018-03-29T23:55:34.135Z,22.28
2018-03-29T23:58:00.466Z,22.27
